This is the latest recevied weather packets stored in our database for station/object DF2AP-13. If no packets are shown the sender has not sent any weather packets the latest 10 day(s).
| Time | Temp. | Humidity | Pressure | Rain* | Wind** | Luminosity | Snow |
|---|---|---|---|---|---|---|---|
| 1777190274 | 9.44° C | 57% | 1027.3 hPa | - | - | - | - |
| 1777189674 | 8.89° C | 59% | 1027.3 hPa | - | - | - | - |
| 1777189074 | 8.33° C | 60% | 1027.3 hPa | - | - | - | - |
| 1777188474 | 7.78° C | 63% | 1027.4 hPa | - | - | - | - |
| 1777187874 | 7.22° C | 64% | 1027.2 hPa | - | - | - | - |
| 1777187274 | 7.22° C | 69% | 1027.3 hPa | - | - | - | - |
| 1777186674 | 6.11° C | 71% | 1027.4 hPa | - | - | - | - |
| 1777186074 | 5.56° C | 73% | 1027.4 hPa | - | - | - | - |
| 1777185474 | 5.56° C | 75% | 1027.2 hPa | - | - | - | - |
| 1777184874 | 5° C | 77% | 1027.3 hPa | - | - | - | - |
| 1777184274 | 5° C | 79% | 1027.3 hPa | - | - | - | - |
| 1777183674 | 5° C | 81% | 1027.2 hPa | - | - | - | - |
| 1777183074 | 4.44° C | 85% | 1027.1 hPa | - | - | - | - |
| 1777182474 | 3.89° C | 86% | 1027.1 hPa | - | - | - | - |
| 1777181874 | 3.89° C | 87% | 1027 hPa | - | - | - | - |
| 1777181274 | 3.33° C | 88% | 1026.9 hPa | - | - | - | - |
| 1777180674 | 2.78° C | 89% | 1026.8 hPa | - | - | - | - |
| 1777180074 | 2.78° C | 88% | 1026.7 hPa | - | - | - | - |
| 1777179474 | 2.78° C | 88% | 1026.5 hPa | - | - | - | - |
| 1777178874 | 2.78° C | 89% | 1026.4 hPa | - | - | - | - |
| 1777178274 | 2.22° C | 89% | 1026.3 hPa | - | - | - | - |
| 1777177674 | 2.22° C | 88% | 1026.1 hPa | - | - | - | - |
| 1777177074 | 2.22° C | 87% | 1026.1 hPa | - | - | - | - |
| 1777176474 | 2.78° C | 86% | 1025.8 hPa | - | - | - | - |
| 1777175874 | 2.78° C | 85% | 1025.6 hPa | - | - | - | - |
* Rain since midnight (hover to see other rain measurements)
** Current wind speed in m/s (hover to see current wind gust speed)